Voyager I — CRA7580 — position and weather

sailwx.info

Track history (hours):
 
Tides and Currents Weather Stations Pressure Air Temp Water Temp Dewpoint Dewpoint Depression Visibility Wind Speed Wind Dir Waves Ship Positions

Voyager I

Last reported at 2018-Feb-17 19:01 UTC. Time now 2018-Feb-20 06:14 UTC.
Position N 38°42' W 009°11'.

Length 12 m.

Type: Sailing vessel. MMSI: 263959222.

Date/timePositionNaut miles runAvg speedWind from/ knotsBaromVisibWave heightAir tempDewpointWater temp
2018-Feb-17 19:01N 38°42' W 009°11'0 2.1
2018-Feb-17 18:55N 38°42' W 009°11'2 4.2
2018-Feb-17 18:28N 38°41' W 009°13'2 4.3
2018-Feb-17 17:59N 38°42' W 009°11'2 3.2
2018-Feb-17 17:23N 38°42' W 009°08'2 4.5
2018-Feb-17 17:00N 38°42' W 009°10'  
2018-Feb-14 19:12N 38°42' W 009°11'0 0.1
2018-Feb-14 18:55N 38°42' W 009°11'1 2.4
2018-Feb-14 18:30N 38°42' W 009°12'3 4.9
2018-Feb-14 17:56N 38°42' W 009°08'1 1.5
2018-Feb-14 17:24N 38°42' W 009°09'1 0.0
2018-Feb-12 16:38N 38°42' W 009°11'0 2.4
2018-Feb-12 16:30N 38°42' W 009°11'2 1.9
2018-Feb-12 15:17N 38°41' W 009°14'1 2.4
2018-Feb-12 14:52N 38°41' W 009°15'2 5.4
2018-Feb-12 14:29N 38°41' W 009°12'2 3.2
2018-Feb-12 13:58N 38°42' W 009°10'1 2.4
2018-Feb-12 13:23N 38°42' W 009°08'1 1.5
2018-Feb-12 12:59N 38°42' W 009°09'  
Track history (hours):
 
Tides and Currents Weather Stations Pressure Air Temp Water Temp Dewpoint Dewpoint Depression Visibility Wind Speed Wind Dir Waves Ship Positions

Voyager I

Last reported at 2018-Feb-17 19:01 UTC. Time now 2018-Feb-20 06:14 UTC.
Position N 38°42' W 009°11'.

Length 12 m.

Type: Sailing vessel. MMSI: 263959222.

Date/timePositionNaut miles runAvg speedWind from/ knotsBaromVisibWave heightAir tempDewpointWater temp
2018-Feb-17 19:01N 38°42' W 009°11'0 2.1
2018-Feb-17 18:55N 38°42' W 009°11'2 4.2
2018-Feb-17 18:28N 38°41' W 009°13'2 4.3
2018-Feb-17 17:59N 38°42' W 009°11'2 3.2
2018-Feb-17 17:23N 38°42' W 009°08'2 4.5
2018-Feb-17 17:00N 38°42' W 009°10'  
2018-Feb-14 19:12N 38°42' W 009°11'0 0.1
2018-Feb-14 18:55N 38°42' W 009°11'1 2.4
2018-Feb-14 18:30N 38°42' W 009°12'3 4.9
2018-Feb-14 17:56N 38°42' W 009°08'1 1.5
2018-Feb-14 17:24N 38°42' W 009°09'1 0.0
2018-Feb-12 16:38N 38°42' W 009°11'0 2.4
2018-Feb-12 16:30N 38°42' W 009°11'2 1.9
2018-Feb-12 15:17N 38°41' W 009°14'1 2.4
2018-Feb-12 14:52N 38°41' W 009°15'2 5.4
2018-Feb-12 14:29N 38°41' W 009°12'2 3.2
2018-Feb-12 13:58N 38°42' W 009°10'1 2.4
2018-Feb-12 13:23N 38°42' W 009°08'1 1.5
2018-Feb-12 12:59N 38°42' W 009°09'  

Dump ship's entire track history